sensor_id;sensor_type;location;lat;lon;timestamp;pressure;altitude;pressure_sealevel;temperature;humidity
71915;BME280;60387;49.994;14.660;2022-12-17T00:01:47;97757.28;;;0.70;61.42
71915;BME280;60387;49.994;14.660;2022-12-17T00:04:21;97759.13;;;0.69;61.68
71915;BME280;60387;49.994;14.660;2022-12-17T00:06:54;97748.47;;;0.69;60.98
71915;BME280;60387;49.994;14.660;2022-12-17T00:09:27;97760.41;;;0.67;61.45
71915;BME280;60387;49.994;14.660;2022-12-17T00:12:01;97761.47;;;0.66;61.49
71915;BME280;60387;49.994;14.660;2022-12-17T00:14:34;97767.50;;;0.61;61.07
71915;BME280;60387;49.994;14.660;2022-12-17T00:17:07;97762.16;;;0.61;61.70
71915;BME280;60387;49.994;14.660;2022-12-17T00:19:40;97762.66;;;0.58;61.14
71915;BME280;60387;49.994;14.660;2022-12-17T00:22:14;97768.78;;;0.59;61.22
71915;BME280;60387;49.994;14.660;2022-12-17T00:24:47;97763.13;;;0.55;61.79
71915;BME280;60387;49.994;14.660;2022-12-17T00:27:20;97778.06;;;0.56;61.10
71915;BME280;60387;49.994;14.660;2022-12-17T00:29:54;97767.06;;;0.53;61.51
71915;BME280;60387;49.994;14.660;2022-12-17T00:32:27;97767.19;;;0.46;60.80
71915;BME280;60387;49.994;14.660;2022-12-17T00:35:00;97787.94;;;0.44;61.28
71915;BME280;60387;49.994;14.660;2022-12-17T00:37:34;97787.94;;;0.44;61.60
71915;BME280;60387;49.994;14.660;2022-12-17T00:40:08;97789.47;;;0.40;61.10
71915;BME280;60387;49.994;14.660;2022-12-17T00:42:41;97793.28;;;0.44;61.67
71915;BME280;60387;49.994;14.660;2022-12-17T00:45:14;97800.47;;;0.44;61.26
71915;BME280;60387;49.994;14.660;2022-12-17T00:47:47;97791.88;;;0.42;61.85
71915;BME280;60387;49.994;14.660;2022-12-17T00:50:21;97797.81;;;0.32;61.87
71915;BME280;60387;49.994;14.660;2022-12-17T00:52:54;97802.09;;;0.33;62.07
71915;BME280;60387;49.994;14.660;2022-12-17T00:55:27;97817.16;;;0.39;61.24
71915;BME280;60387;49.994;14.660;2022-12-17T00:58:01;97818.53;;;0.42;61.64
71915;BME280;60387;49.994;14.660;2022-12-17T01:00:34;97810.06;;;0.45;61.27
71915;BME280;60387;49.994;14.660;2022-12-17T01:03:11;97813.09;;;0.48;61.46
71915;BME280;60387;49.994;14.660;2022-12-17T01:05:44;97816.78;;;0.47;61.76
71915;BME280;60387;49.994;14.660;2022-12-17T01:08:17;97821.06;;;0.48;61.73
71915;BME280;60387;49.994;14.660;2022-12-17T01:10:51;97831.72;;;0.48;61.18
71915;BME280;60387;49.994;14.660;2022-12-17T01:13:24;97819.69;;;0.46;61.39
71915;BME280;60387;49.994;14.660;2022-12-17T01:16:07;97830.69;;;0.49;61.65
71915;BME280;60387;49.994;14.660;2022-12-17T01:18:41;97832.19;;;0.45;61.83
71915;BME280;60387;49.994;14.660;2022-12-17T01:21:14;97835.44;;;0.47;61.47
71915;BME280;60387;49.994;14.660;2022-12-17T01:23:48;97824.44;;;0.44;61.60
71915;BME280;60387;49.994;14.660;2022-12-17T01:26:21;97840.88;;;0.52;61.76
71915;BME280;60387;49.994;14.660;2022-12-17T01:28:56;97845.16;;;0.53;61.93
71915;BME280;60387;49.994;14.660;2022-12-17T01:31:29;97847.59;;;0.55;61.31
71915;BME280;60387;49.994;14.660;2022-12-17T01:34:03;97854.53;;;0.56;61.68
71915;BME280;60387;49.994;14.660;2022-12-17T01:36:36;97850.03;;;0.56;61.54
71915;BME280;60387;49.994;14.660;2022-12-17T01:39:09;97861.72;;;0.55;61.48
71915;BME280;60387;49.994;14.660;2022-12-17T01:41:42;97875.38;;;0.59;61.58
71915;BME280;60387;49.994;14.660;2022-12-17T01:47:11;97866.66;;;0.63;61.64
71915;BME280;60387;49.994;14.660;2022-12-17T01:49:44;97875.50;;;0.64;61.77
71915;BME280;60387;49.994;14.660;2022-12-17T01:52:18;97873.31;;;0.61;61.29
71915;BME280;60387;49.994;14.660;2022-12-17T01:54:52;97866.09;;;0.61;61.44
71915;BME280;60387;49.994;14.660;2022-12-17T01:57:25;97871.78;;;0.65;61.34
71915;BME280;60387;49.994;14.660;2022-12-17T02:00:03;97873.97;;;0.68;61.45
71915;BME280;60387;49.994;14.660;2022-12-17T02:02:37;97878.50;;;0.67;61.63
71915;BME280;60387;49.994;14.660;2022-12-17T02:05:11;97870.50;;;0.67;61.51
71915;BME280;60387;49.994;14.660;2022-12-17T02:07:59;97880.13;;;0.68;61.08
71915;BME280;60387;49.994;14.660;2022-12-17T02:14:10;97881.66;;;0.64;61.38
71915;BME280;60387;49.994;14.660;2022-12-17T02:16:49;97890.78;;;0.68;61.64
71915;BME280;60387;49.994;14.660;2022-12-17T02:22:55;97902.00;;;0.70;62.00
71915;BME280;60387;49.994;14.660;2022-12-17T02:26:00;97899.34;;;0.70;61.77
71915;BME280;60387;49.994;14.660;2022-12-17T02:28:36;97907.59;;;0.69;61.53
71915;BME280;60387;49.994;14.660;2022-12-17T02:31:12;97901.44;;;0.68;61.77
71915;BME280;60387;49.994;14.660;2022-12-17T02:33:47;97907.34;;;0.70;61.80
71915;BME280;60387;49.994;14.660;2022-12-17T02:36:21;97903.63;;;0.71;61.42
71915;BME280;60387;49.994;14.660;2022-12-17T02:38:54;97906.28;;;0.71;61.07
71915;BME280;60387;49.994;14.660;2022-12-17T02:41:31;97904.22;;;0.73;61.38
71915;BME280;60387;49.994;14.660;2022-12-17T02:44:08;97904.22;;;0.73;61.11
71915;BME280;60387;49.994;14.660;2022-12-17T02:46:44;97912.66;;;0.70;61.16
71915;BME280;60387;49.994;14.660;2022-12-17T02:49:18;97910.00;;;0.70;61.40
71915;BME280;60387;49.994;14.660;2022-12-17T02:51:53;97915.59;;;0.69;60.94
71915;BME280;60387;49.994;14.660;2022-12-17T02:54:31;97903.19;;;0.63;61.35
71915;BME280;60387;49.994;14.660;2022-12-17T02:57:04;97914.28;;;0.71;61.14
71915;BME280;60387;49.994;14.660;2022-12-17T02:59:38;97904.09;;;0.68;61.43
71915;BME280;60387;49.994;14.660;2022-12-17T03:02:11;97921.84;;;0.74;61.13
71915;BME280;60387;49.994;14.660;2022-12-17T03:04:44;97918.81;;;0.71;61.07
71915;BME280;60387;49.994;14.660;2022-12-17T03:07:17;97926.91;;;0.76;61.40
71915;BME280;60387;49.994;14.660;2022-12-17T03:09:51;97925.78;;;0.72;61.46
71915;BME280;60387;49.994;14.660;2022-12-17T03:12:24;97918.97;;;0.64;61.30
71915;BME280;60387;49.994;14.660;2022-12-17T03:14:57;97924.59;;;0.68;61.10
71915;BME280;60387;49.994;14.660;2022-12-17T03:17:30;97938.53;;;0.70;61.06
71915;BME280;60387;49.994;14.660;2022-12-17T03:20:04;97952.22;;;0.73;61.13
71915;BME280;60387;49.994;14.660;2022-12-17T03:22:37;97940.94;;;0.71;61.33
71915;BME280;60387;49.994;14.660;2022-12-17T03:25:11;97942.81;;;0.71;61.11
71915;BME280;60387;49.994;14.660;2022-12-17T03:27:44;97949.53;;;0.73;61.44
71915;BME280;60387;49.994;14.660;2022-12-17T03:30:17;97953.22;;;0.72;61.52
71915;BME280;60387;49.994;14.660;2022-12-17T03:32:51;97944.09;;;0.68;61.21
71915;BME280;60387;49.994;14.660;2022-12-17T03:35:24;97957.19;;;0.70;61.54
71915;BME280;60387;49.994;14.660;2022-12-17T03:37:57;97948.16;;;0.71;60.34
71915;BME280;60387;49.994;14.660;2022-12-17T03:40:30;97963.09;;;0.72;61.06
71915;BME280;60387;49.994;14.660;2022-12-17T03:43:08;97966.56;;;0.72;60.96
71915;BME280;60387;49.994;14.660;2022-12-17T03:45:41;97959.25;;;0.68;61.21
71915;BME280;60387;49.994;14.660;2022-12-17T03:48:14;97938.75;;;0.57;61.62
71915;BME280;60387;49.994;14.660;2022-12-17T03:50:49;97970.16;;;0.78;61.29
71915;BME280;60387;49.994;14.660;2022-12-17T03:53:23;97964.50;;;0.74;61.67
71915;BME280;60387;49.994;14.660;2022-12-17T03:55:56;97980.47;;;0.74;60.79
71915;BME280;60387;49.994;14.660;2022-12-17T03:58:29;97973.06;;;0.76;60.92
71915;BME280;60387;49.994;14.660;2022-12-17T04:01:03;97973.53;;;0.73;60.65
71915;BME280;60387;49.994;14.660;2022-12-17T04:03:36;97982.91;;;0.76;60.93
71915;BME280;60387;49.994;14.660;2022-12-17T04:06:09;97983.38;;;0.73;61.19
71915;BME280;60387;49.994;14.660;2022-12-17T04:08:42;97986.50;;;0.70;61.55
71915;BME280;60387;49.994;14.660;2022-12-17T04:11:16;97999.38;;;0.73;60.70
71915;BME280;60387;49.994;14.660;2022-12-17T04:13:49;98009.19;;;0.72;61.14
71915;BME280;60387;49.994;14.660;2022-12-17T04:16:22;98014.53;;;0.72;61.08
71915;BME280;60387;49.994;14.660;2022-12-17T04:18:55;98012.47;;;0.74;61.31
71915;BME280;60387;49.994;14.660;2022-12-17T04:21:29;98018.84;;;0.73;61.54
71915;BME280;60387;49.994;14.660;2022-12-17T04:24:02;98027.06;;;0.72;61.42
71915;BME280;60387;49.994;14.660;2022-12-17T04:26:35;98024.97;;;0.74;61.35
71915;BME280;60387;49.994;14.660;2022-12-17T04:29:09;98036.22;;;0.76;61.09
71915;BME280;60387;49.994;14.660;2022-12-17T04:31:42;98036.47;;;0.74;61.08
71915;BME280;60387;49.994;14.660;2022-12-17T04:34:15;98039.47;;;0.78;60.89
71915;BME280;60387;49.994;14.660;2022-12-17T04:36:48;98039.47;;;0.78;60.89
71915;BME280;60387;49.994;14.660;2022-12-17T04:39:22;98042.38;;;0.76;61.58
71915;BME280;60387;49.994;14.660;2022-12-17T04:41:55;98043.50;;;0.80;61.00
71915;BME280;60387;49.994;14.660;2022-12-17T04:44:28;98044.56;;;0.79;61.38
71915;BME280;60387;49.994;14.660;2022-12-17T04:47:02;98055.00;;;0.81;60.85
71915;BME280;60387;49.994;14.660;2022-12-17T04:49:35;98056.28;;;0.78;60.98
71915;BME280;60387;49.994;14.660;2022-12-17T04:52:08;98049.53;;;0.76;61.53
71915;BME280;60387;49.994;14.660;2022-12-17T04:54:41;98059.97;;;0.77;61.18
71915;BME280;60387;49.994;14.660;2022-12-17T04:57:15;98066.13;;;0.78;60.95
71915;BME280;60387;49.994;14.660;2022-12-17T04:59:48;98070.66;;;0.77;61.20
71915;BME280;60387;49.994;14.660;2022-12-17T05:02:21;98069.84;;;0.77;61.06
71915;BME280;60387;49.994;14.660;2022-12-17T05:04:54;98076.56;;;0.79;61.60
71915;BME280;60387;49.994;14.660;2022-12-17T05:07:28;98081.66;;;0.81;61.48
71915;BME280;60387;49.994;14.660;2022-12-17T05:10:01;98080.84;;;0.80;61.61
71915;BME280;60387;49.994;14.660;2022-12-17T05:12:34;98087.22;;;0.79;61.51
71915;BME280;60387;49.994;14.660;2022-12-17T05:15:08;98088.84;;;0.80;61.55
71915;BME280;60387;49.994;14.660;2022-12-17T05:17:41;98086.41;;;0.79;61.06
71915;BME280;60387;49.994;14.660;2022-12-17T05:20:15;98096.41;;;0.83;61.25
71915;BME280;60387;49.994;14.660;2022-12-17T05:22:48;98095.56;;;0.83;61.37
71915;BME280;60387;49.994;14.660;2022-12-17T05:25:21;98094.31;;;0.85;61.49
71915;BME280;60387;49.994;14.660;2022-12-17T05:27:54;98106.00;;;0.84;61.76
71915;BME280;60387;49.994;14.660;2022-12-17T05:30:28;98100.09;;;0.82;61.86
71915;BME280;60387;49.994;14.660;2022-12-17T05:33:02;98107.28;;;0.82;61.65
71915;BME280;60387;49.994;14.660;2022-12-17T05:35:35;98108.31;;;0.81;61.60
71915;BME280;60387;49.994;14.660;2022-12-17T05:38:10;98113.66;;;0.81;62.10
71915;BME280;60387;49.994;14.660;2022-12-17T05:40:45;98125.94;;;0.82;62.23
71915;BME280;60387;49.994;14.660;2022-12-17T05:43:19;98127.19;;;0.79;61.57
71915;BME280;60387;49.994;14.660;2022-12-17T05:45:52;98126.41;;;0.79;62.04
71915;BME280;60387;49.994;14.660;2022-12-17T05:48:26;98131.28;;;0.82;62.03
71915;BME280;60387;49.994;14.660;2022-12-17T05:50:59;98133.84;;;0.77;61.79
71915;BME280;60387;49.994;14.660;2022-12-17T05:53:32;98125.84;;;0.77;62.03
71915;BME280;60387;49.994;14.660;2022-12-17T05:56:05;98135.09;;;0.74;62.06
71915;BME280;60387;49.994;14.660;2022-12-17T05:58:39;98131.03;;;0.72;61.60
71915;BME280;60387;49.994;14.660;2022-12-17T06:01:12;98142.03;;;0.75;62.19
71915;BME280;60387;49.994;14.660;2022-12-17T06:03:45;98145.75;;;0.74;62.00
71915;BME280;60387;49.994;14.660;2022-12-17T06:06:19;98146.34;;;0.76;62.29
71915;BME280;60387;49.994;14.660;2022-12-17T06:08:52;98152.72;;;0.75;62.52
71915;BME280;60387;49.994;14.660;2022-12-17T06:11:25;98162.56;;;0.75;62.35
71915;BME280;60387;49.994;14.660;2022-12-17T06:13:59;98159.53;;;0.71;62.39
71915;BME280;60387;49.994;14.660;2022-12-17T06:16:32;98158.72;;;0.71;62.11
71915;BME280;60387;49.994;14.660;2022-12-17T06:19:05;98163.00;;;0.72;62.08
71915;BME280;60387;49.994;14.660;2022-12-17T06:21:39;98166.03;;;0.75;62.28
71915;BME280;60387;49.994;14.660;2022-12-17T06:24:12;98175.09;;;0.74;61.76
71915;BME280;60387;49.994;14.660;2022-12-17T06:26:45;98177.75;;;0.74;62.11
71915;BME280;60387;49.994;14.660;2022-12-17T06:29:19;98186.31;;;0.76;62.25
71915;BME280;60387;49.994;14.660;2022-12-17T06:31:52;98179.81;;;0.72;62.30
71915;BME280;60387;49.994;14.660;2022-12-17T06:34:25;98177.13;;;0.72;62.38
71915;BME280;60387;49.994;14.660;2022-12-17T06:36:58;98182.84;;;0.76;62.29
71915;BME280;60387;49.994;14.660;2022-12-17T06:39:32;98181.47;;;0.73;62.52
71915;BME280;60387;49.994;14.660;2022-12-17T06:42:05;98198.81;;;0.76;62.41
71915;BME280;60387;49.994;14.660;2022-12-17T06:44:38;98190.03;;;0.75;62.09
71915;BME280;60387;49.994;14.660;2022-12-17T06:47:11;98196.16;;;0.76;62.16
71915;BME280;60387;49.994;14.660;2022-12-17T06:49:45;98201.13;;;0.72;62.44
71915;BME280;60387;49.994;14.660;2022-12-17T06:52:18;98203.16;;;0.77;62.28
71915;BME280;60387;49.994;14.660;2022-12-17T06:54:51;98197.00;;;0.76;62.04
71915;BME280;60387;49.994;14.660;2022-12-17T06:57:25;98212.97;;;0.76;61.93
71915;BME280;60387;49.994;14.660;2022-12-17T06:59:58;98228.97;;;0.76;62.15
71915;BME280;60387;49.994;14.660;2022-12-17T07:02:31;98215.50;;;0.71;62.56
71915;BME280;60387;49.994;14.660;2022-12-17T07:05:05;98230.03;;;0.75;62.22
71915;BME280;60387;49.994;14.660;2022-12-17T07:07:38;98227.34;;;0.75;62.20
71915;BME280;60387;49.994;14.660;2022-12-17T07:10:12;98234.78;;;0.73;62.20
71915;BME280;60387;49.994;14.660;2022-12-17T07:12:45;98237.19;;;0.75;61.89
71915;BME280;60387;49.994;14.660;2022-12-17T07:15:18;98244.97;;;0.76;62.11
71915;BME280;60387;49.994;14.660;2022-12-17T07:18:02;98251.47;;;0.80;62.55
71915;BME280;60387;49.994;14.660;2022-12-17T07:20:35;98257.63;;;0.81;62.71
71915;BME280;60387;49.994;14.660;2022-12-17T07:23:10;98255.19;;;0.79;62.75
71915;BME280;60387;49.994;14.660;2022-12-17T07:25:43;98256.78;;;0.80;62.10
71915;BME280;60387;49.994;14.660;2022-12-17T07:28:16;98226.63;;;0.68;62.36
71915;BME280;60387;49.994;14.660;2022-12-17T07:30:50;98257.53;;;0.87;62.56
71915;BME280;60387;49.994;14.660;2022-12-17T07:33:23;98266.09;;;0.89;62.47
71915;BME280;60387;49.994;14.660;2022-12-17T07:35:56;98259.28;;;0.93;61.92
71915;BME280;60387;49.994;14.660;2022-12-17T07:38:30;98259.66;;;0.97;61.86
71915;BME280;60387;49.994;14.660;2022-12-17T07:41:03;98271.25;;;1.02;62.13
71915;BME280;60387;49.994;14.660;2022-12-17T07:43:36;98274.50;;;1.04;62.49
71915;BME280;60387;49.994;14.660;2022-12-17T07:46:09;98282.06;;;1.07;62.20
71915;BME280;60387;49.994;14.660;2022-12-17T07:48:43;98285.91;;;1.11;62.13
71915;BME280;60387;49.994;14.660;2022-12-17T07:51:16;98289.16;;;1.13;61.74
71915;BME280;60387;49.994;14.660;2022-12-17T07:53:50;98291.97;;;1.18;62.26
71915;BME280;60387;49.994;14.660;2022-12-17T07:56:23;98302.31;;;1.26;61.86
71915;BME280;60387;49.994;14.660;2022-12-17T07:58:56;98301.63;;;1.31;61.94
71915;BME280;60387;49.994;14.660;2022-12-17T08:01:29;98305.69;;;1.33;62.30
71915;BME280;60387;49.994;14.660;2022-12-17T08:04:03;98313.22;;;1.36;62.06
71915;BME280;60387;49.994;14.660;2022-12-17T08:06:36;98309.06;;;1.40;62.11
71915;BME280;60387;49.994;14.660;2022-12-17T08:09:09;98321.97;;;1.43;61.60
71915;BME280;60387;49.994;14.660;2022-12-17T08:11:43;98319.50;;;1.42;62.22
71915;BME280;60387;49.994;14.660;2022-12-17T08:14:16;98336.03;;;1.50;61.87
71915;BME280;60387;49.994;14.660;2022-12-17T08:16:49;98326.16;;;1.51;61.99
71915;BME280;60387;49.994;14.660;2022-12-17T08:19:22;98333.25;;;1.57;62.15
71915;BME280;60387;49.994;14.660;2022-12-17T08:21:56;98333.03;;;1.58;62.05
71915;BME280;60387;49.994;14.660;2022-12-17T08:24:29;98337.91;;;1.61;62.01
71915;BME280;60387;49.994;14.660;2022-12-17T08:27:02;98330.09;;;1.60;62.15
71915;BME280;60387;49.994;14.660;2022-12-17T08:29:36;98333.97;;;1.64;61.54
71915;BME280;60387;49.994;14.660;2022-12-17T08:32:09;98346.84;;;1.67;61.50
71915;BME280;60387;49.994;14.660;2022-12-17T08:34:43;98346.16;;;1.71;61.72
71915;BME280;60387;49.994;14.660;2022-12-17T08:37:16;98342.44;;;1.72;61.44
71915;BME280;60387;49.994;14.660;2022-12-17T08:39:49;98347.34;;;1.75;61.83
71915;BME280;60387;49.994;14.660;2022-12-17T08:42:22;98358.59;;;1.77;61.83
71915;BME280;60387;49.994;14.660;2022-12-17T08:44:56;98355.09;;;1.77;61.64
71915;BME280;60387;49.994;14.660;2022-12-17T08:47:29;98361.63;;;1.81;61.67
71915;BME280;60387;49.994;14.660;2022-12-17T08:50:03;98363.03;;;1.83;61.55
71915;BME280;60387;49.994;14.660;2022-12-17T08:52:37;98377.06;;;1.90;61.49
71915;BME280;60387;49.994;14.660;2022-12-17T08:55:10;98371.28;;;1.93;61.50
71915;BME280;60387;49.994;14.660;2022-12-17T08:57:54;98383.94;;;1.98;61.77
71915;BME280;60387;49.994;14.660;2022-12-17T09:00:27;98384.28;;;2.01;61.57
71915;BME280;60387;49.994;14.660;2022-12-17T09:03:01;98381.38;;;2.03;61.68
71915;BME280;60387;49.994;14.660;2022-12-17T09:05:35;98378.84;;;2.08;61.23
71915;BME280;60387;49.994;14.660;2022-12-17T09:08:08;98381.97;;;2.16;61.79
71915;BME280;60387;49.994;14.660;2022-12-17T09:10:41;98389.63;;;2.24;61.80
71915;BME280;60387;49.994;14.660;2022-12-17T09:13:15;98391.38;;;2.30;61.50
71915;BME280;60387;49.994;14.660;2022-12-17T09:15:52;98381.97;;;2.39;61.84
71915;BME280;60387;49.994;14.660;2022-12-17T09:18:26;98398.25;;;2.49;61.55
71915;BME280;60387;49.994;14.660;2022-12-17T09:20:59;98394.63;;;2.55;61.07
71915;BME280;60387;49.994;14.660;2022-12-17T09:23:32;98387.75;;;2.59;61.02
71915;BME280;60387;49.994;14.660;2022-12-17T09:26:05;98396.72;;;2.65;60.66
71915;BME280;60387;49.994;14.660;2022-12-17T09:28:39;98397.06;;;2.68;61.02
71915;BME280;60387;49.994;14.660;2022-12-17T09:31:13;98392.50;;;2.80;61.01
71915;BME280;60387;49.994;14.660;2022-12-17T09:33:46;98392.50;;;2.92;61.06
71915;BME280;60387;49.994;14.660;2022-12-17T09:36:19;98392.22;;;3.04;60.93
71915;BME280;60387;49.994;14.660;2022-12-17T09:38:53;98394.78;;;3.11;60.55
71915;BME280;60387;49.994;14.660;2022-12-17T09:44:47;98406.25;;;3.23;59.66
71915;BME280;60387;49.994;14.660;2022-12-17T09:50:13;98405.88;;;3.31;60.47
71915;BME280;60387;49.994;14.660;2022-12-17T09:52:48;98405.66;;;3.32;60.38
71915;BME280;60387;49.994;14.660;2022-12-17T09:55:25;98411.66;;;3.39;60.37
71915;BME280;60387;49.994;14.660;2022-12-17T09:58:00;98414.94;;;3.41;60.14
71915;BME280;60387;49.994;14.660;2022-12-17T10:00:33;98416.53;;;3.42;60.12
71915;BME280;60387;49.994;14.660;2022-12-17T10:03:13;98426.78;;;3.45;59.87
71915;BME280;60387;49.994;14.660;2022-12-17T10:05:48;98426.44;;;3.42;59.88
71915;BME280;60387;49.994;14.660;2022-12-17T10:08:22;98426.09;;;3.38;59.77
71915;BME280;60387;49.994;14.660;2022-12-17T10:10:55;98429.81;;;3.37;59.78
71915;BME280;60387;49.994;14.660;2022-12-17T10:13:29;98428.69;;;3.33;59.67
71915;BME280;60387;49.994;14.660;2022-12-17T10:18:52;98433.44;;;3.31;60.03
71915;BME280;60387;49.994;14.660;2022-12-17T10:21:28;98439.06;;;3.30;59.70
71915;BME280;60387;49.994;14.660;2022-12-17T10:24:09;98443.69;;;3.34;60.04
71915;BME280;60387;49.994;14.660;2022-12-17T10:26:47;98450.44;;;3.37;59.63
71915;BME280;60387;49.994;14.660;2022-12-17T10:29:24;98437.63;;;3.39;59.69
71915;BME280;60387;49.994;14.660;2022-12-17T10:31:59;98450.53;;;3.42;59.89
71915;BME280;60387;49.994;14.660;2022-12-17T10:34:44;98448.66;;;3.54;60.13
71915;BME280;60387;49.994;14.660;2022-12-17T10:37:19;98451.25;;;3.65;59.98
71915;BME280;60387;49.994;14.660;2022-12-17T10:39:57;98453.81;;;3.72;59.33
71915;BME280;60387;49.994;14.660;2022-12-17T10:42:38;98452.81;;;3.78;59.56
71915;BME280;60387;49.994;14.660;2022-12-17T10:45:19;98453.28;;;3.86;59.71
71915;BME280;60387;49.994;14.660;2022-12-17T10:47:53;98443.44;;;3.92;59.61
71915;BME280;60387;49.994;14.660;2022-12-17T10:50:26;98449.94;;;3.96;59.63
71915;BME280;60387;49.994;14.660;2022-12-17T10:53:00;98453.88;;;4.05;58.90
71915;BME280;60387;49.994;14.660;2022-12-17T10:55:34;98452.44;;;4.14;58.79
71915;BME280;60387;49.994;14.660;2022-12-17T10:58:28;98469.25;;;4.26;59.29
71915;BME280;60387;49.994;14.660;2022-12-17T11:01:02;98465.34;;;4.33;59.13
71915;BME280;60387;49.994;14.660;2022-12-17T11:03:56;98467.78;;;4.35;58.43
71915;BME280;60387;49.994;14.660;2022-12-17T11:06:33;98477.69;;;4.34;57.36
71915;BME280;60387;49.994;14.660;2022-12-17T11:09:13;98485.00;;;4.22;57.42
71915;BME280;60387;49.994;14.660;2022-12-17T11:11:49;98479.69;;;4.11;57.43
71915;BME280;60387;49.994;14.660;2022-12-17T11:14:25;98491.97;;;4.07;57.93
71915;BME280;60387;49.994;14.660;2022-12-17T11:17:02;98496.16;;;4.03;57.80
71915;BME280;60387;49.994;14.660;2022-12-17T11:19:45;98492.69;;;4.02;58.08
71915;BME280;60387;49.994;14.660;2022-12-17T11:22:45;98498.56;;;4.16;58.17
71915;BME280;60387;49.994;14.660;2022-12-17T11:28:21;98508.34;;;4.22;57.53
71915;BME280;60387;49.994;14.660;2022-12-17T11:31:06;98503.75;;;4.22;57.26
71915;BME280;60387;49.994;14.660;2022-12-17T11:33:51;98492.81;;;4.24;57.70
71915;BME280;60387;49.994;14.660;2022-12-17T11:36:37;98498.25;;;4.29;57.77
71915;BME280;60387;49.994;14.660;2022-12-17T11:39:20;98502.66;;;4.35;57.74
71915;BME280;60387;49.994;14.660;2022-12-17T11:42:17;98512.25;;;4.47;57.80
71915;BME280;60387;49.994;14.660;2022-12-17T11:50:33;98508.09;;;4.56;57.61
71915;BME280;60387;49.994;14.660;2022-12-17T11:58:39;98508.59;;;4.70;57.17
71915;BME280;60387;49.994;14.660;2022-12-17T12:01:36;98514.50;;;4.72;57.66
71915;BME280;60387;49.994;14.660;2022-12-17T12:07:34;98520.88;;;4.66;57.28
71915;BME280;60387;49.994;14.660;2022-12-17T12:10:16;98513.22;;;4.58;56.73
71915;BME280;60387;49.994;14.660;2022-12-17T12:16:09;98524.69;;;4.53;57.37
71915;BME280;60387;49.994;14.660;2022-12-17T12:22:08;98519.06;;;4.55;57.50
71915;BME280;60387;49.994;14.660;2022-12-17T12:27:55;98524.94;;;4.52;57.13
71915;BME280;60387;49.994;14.660;2022-12-17T12:31:00;98521.41;;;4.51;57.10
71915;BME280;60387;49.994;14.660;2022-12-17T12:33:59;98519.47;;;4.47;56.81
71915;BME280;60387;49.994;14.660;2022-12-17T12:36:35;98525.56;;;4.42;56.92
71915;BME280;60387;49.994;14.660;2022-12-17T12:39:12;98522.56;;;4.39;56.98
71915;BME280;60387;49.994;14.660;2022-12-17T12:41:54;98531.97;;;4.41;57.05
71915;BME280;60387;49.994;14.660;2022-12-17T12:44:38;98497.00;;;4.20;56.46
71915;BME280;60387;49.994;14.660;2022-12-17T12:47:27;98531.91;;;4.36;56.93
71915;BME280;60387;49.994;14.660;2022-12-17T12:50:19;98528.91;;;4.33;57.19
71915;BME280;60387;49.994;14.660;2022-12-17T12:52:56;98535.38;;;4.37;57.50
71915;BME280;60387;49.994;14.660;2022-12-17T12:55:40;98541.25;;;4.34;57.41
71915;BME280;60387;49.994;14.660;2022-12-17T12:58:31;98539.38;;;4.34;57.06
71915;BME280;60387;49.994;14.660;2022-12-17T13:01:05;98533.19;;;4.34;57.26
71915;BME280;60387;49.994;14.660;2022-12-17T13:06:37;98545.88;;;4.38;57.12
71915;BME280;60387;49.994;14.660;2022-12-17T13:11:49;98544.34;;;4.42;57.64
71915;BME280;60387;49.994;14.660;2022-12-17T13:14:49;98538.75;;;4.44;57.31
71915;BME280;60387;49.994;14.660;2022-12-17T13:17:34;98548.75;;;4.48;57.27
71915;BME280;60387;49.994;14.660;2022-12-17T13:20:30;98556.00;;;4.48;57.40
71915;BME280;60387;49.994;14.660;2022-12-17T13:23:36;98560.84;;;4.51;57.77
71915;BME280;60387;49.994;14.660;2022-12-17T13:31:26;98563.22;;;4.47;57.23
71915;BME280;60387;49.994;14.660;2022-12-17T13:36:58;98559.47;;;4.48;57.56
71915;BME280;60387;49.994;14.660;2022-12-17T13:42:30;98568.34;;;4.49;57.81
71915;BME280;60387;49.994;14.660;2022-12-17T13:45:04;98569.97;;;4.50;57.91
71915;BME280;60387;49.994;14.660;2022-12-17T13:47:38;98575.78;;;4.47;57.61
71915;BME280;60387;49.994;14.660;2022-12-17T13:50:23;98587.00;;;4.44;57.61
71915;BME280;60387;49.994;14.660;2022-12-17T13:53:07;98593.34;;;4.38;57.81
71915;BME280;60387;49.994;14.660;2022-12-17T13:55:49;98604.31;;;4.36;57.73
71915;BME280;60387;49.994;14.660;2022-12-17T13:58:30;98606.19;;;4.36;57.70
71915;BME280;60387;49.994;14.660;2022-12-17T14:01:10;98611.47;;;4.31;58.11
71915;BME280;60387;49.994;14.660;2022-12-17T14:03:52;98614.88;;;4.26;57.62
71915;BME280;60387;49.994;14.660;2022-12-17T14:06:35;98618.72;;;4.19;57.29
71915;BME280;60387;49.994;14.660;2022-12-17T14:09:15;98625.50;;;4.10;57.13
71915;BME280;60387;49.994;14.660;2022-12-17T14:11:50;98637.66;;;4.01;57.54
71915;BME280;60387;49.994;14.660;2022-12-17T14:14:37;98632.09;;;3.91;57.50
71915;BME280;60387;49.994;14.660;2022-12-17T14:17:23;98630.25;;;3.80;57.09
71915;BME280;60387;49.994;14.660;2022-12-17T14:20:00;98640.50;;;3.71;57.23
71915;BME280;60387;49.994;14.660;2022-12-17T14:22:37;98631.78;;;3.64;57.25
71915;BME280;60387;49.994;14.660;2022-12-17T14:25:22;98642.06;;;3.56;57.07
71915;BME280;60387;49.994;14.660;2022-12-17T14:28:20;98641.94;;;3.51;57.54
71915;BME280;60387;49.994;14.660;2022-12-17T14:31:26;98637.28;;;3.46;58.00
71915;BME280;60387;49.994;14.660;2022-12-17T14:34:16;98630.63;;;3.37;57.67
71915;BME280;60387;49.994;14.660;2022-12-17T14:36:58;98651.25;;;3.37;57.83
71915;BME280;60387;49.994;14.660;2022-12-17T14:39:32;98665.00;;;3.29;57.83
71915;BME280;60387;49.994;14.660;2022-12-17T14:42:19;98654.03;;;3.19;57.83
71915;BME280;60387;49.994;14.660;2022-12-17T14:47:35;98660.91;;;3.15;57.97
71915;BME280;60387;49.994;14.660;2022-12-17T14:52:47;98672.41;;;3.04;57.85
71915;BME280;60387;49.994;14.660;2022-12-17T14:55:38;98670.63;;;2.98;57.93